Flight Track Log - Related Links

Times and Time Zones

All times are in EDT time to prevent confusion due to time zone crossing. See the BOE5 flight status page for this flight to view local times or setup timezone preferences in your user account.

Time Position Orientation Groundspeed Altitude Reporting Facility
EDT Latitude Longitude Course Direction KTS MPH feet Rate Location/Type
Sun 12:05:57 PM 47.5125 -122.2906 141° Southeast 163 188 1,300  Level Seattle Center
Sun 12:06:27 PM 47.4900 -122.2636 141° Southeast 197 227 2,600 2,867 Climbing Seattle Center
Sun 12:07:27 PM 47.4264 -122.2233 157° South 273 314 5,600 3,086 Climbing Seattle Center
Sun 12:08:12 PM 47.3761 -122.2258 182° South 268 308 8,000 3,170 Climbing Seattle Center
Sun 12:09:13 PM 47.3614 -122.3450 260° West 315 362 11,200 2,976 Climbing Seattle Center
Sun 12:10:15 PM 47.3781 -122.4928 280° West 364 419 14,100 2,829 Climbing Seattle Center
Sun 12:11:16 PM 47.3500 -122.6425 255° West 382 440 17,000 2,705 Climbing Seattle Center
Sun 12:12:17 PM 47.3119 -122.7842 248° West 396 456 19,600 2,311 Climbing Seattle Center
Sun 12:13:18 PM 47.2706 -122.9406 249° West 406 467 21,700 2,262 Climbing Seattle Center
Sun 12:14:19 PM 47.2278 -123.1086 250° West 435 501 24,200 2,164 Climbing Seattle Center
Sun 12:15:20 PM 47.1819 -123.2786 248° West 447 514 26,100 1,918 Climbing Seattle Center
Sun 12:16:21 PM 47.0692 -123.4036 217° Southwest 446 513 28,100 1,770 Climbing Seattle Center
Sun 12:17:22 PM 46.9478 -123.4011 179° South 441 507 29,700 1,426 Climbing Seattle Center
Sun 12:18:23 PM 46.8225 -123.3928 177° South 452 520 31,000 1,328 Climbing Seattle Center
Sun 12:19:24 PM 46.6956 -123.3900 179° South 456 525 32,400 1,279 Climbing Seattle Center
Sun 12:20:25 PM 46.5656 -123.3864 179° South 468 539 33,600 1,180 Climbing Seattle Center
Sun 12:21:26 PM 46.4339 -123.3825 179° South 480 552 34,800 689 Climbing Seattle Center
Sun 12:22:27 PM 46.2944 -123.3717 177° South 493 567 35,000 49 Climbing Seattle Center
Sun 12:23:28 PM 46.1597 -123.3644 178° South 491 565 34,900  Descending Seattle Center
Sun 12:24:29 PM 46.0275 -123.3569 178° South 481 554 35,000  Climbing Seattle Center
Sun 12:25:30 PM 45.8678 -123.3514 179° South 479 551 34,900  Descending Seattle Center
Sun 12:26:31 PM 45.7347 -123.3467 179° South 479 551 35,000 49 Climbing Seattle Center
Sun 12:27:32 PM 45.6028 -123.3406 178° South 475 547 35,000 -49 Level Seattle Center
Sun 12:28:33 PM 45.4700 -123.3353 178° South 477 549 34,900 -49 Descending Seattle Center
Sun 12:29:34 PM 45.3378 -123.3294 178° South 475 547 34,900 49 Level Seattle Center
Sun 12:30:35 PM 45.2056 -123.3236 178° South 474 545 35,000  Climbing Seattle Center
Sun 12:31:37 PM 45.0714 -123.3175 178° South 477 549 34,900 -49 Descending Seattle Center
Sun 12:32:38 PM 44.9350 -123.3108 178° South 480 552 34,900 49 Level Seattle Center
Sun 12:33:39 PM 44.7994 -123.3058 179° South 476 548 35,000  Climbing Seattle Center
Sun 12:34:40 PM 44.6647 -123.2997 178° South 480 552 34,900 -49 Descending Seattle Center
Sun 12:35:41 PM 44.5306 -123.2944 178° South 482 555 34,900 49 Level Seattle Center
Sun 12:36:42 PM 44.3961 -123.2972 181° South 479 551 35,000 49 Climbing Seattle Center
Sun 12:37:43 PM 44.2625 -123.3036 182° South 481 554 35,000 -49 Level Seattle Center
Sun 12:38:44 PM 44.1292 -123.3094 182° South 480 552 34,900  Descending Seattle Center
Sun 12:39:46 PM 43.9928 -123.3161 182° South 473 544 35,000 49 Climbing Seattle Center
Sun 12:40:47 PM 43.8614 -123.3211 182° South 473 544 35,000  Level Seattle Center
Sun 12:41:48 PM 43.7314 -123.3281 182° South 469 540 35,000  Level Seattle Center
Sun 12:42:49 PM 43.5742 -123.3358 182° South 471 542 35,000  Level Seattle Center
Sun 12:43:50 PM 43.4428 -123.3408 182° South 471 542 35,000  Level Seattle Center
Sun 12:44:51 PM 43.3122 -123.3472 182° South 470 541 35,000  Level Seattle Center
Sun 12:45:53 PM 43.1822 -123.3544 182° South 467 537 35,000  Level Seattle Center
Sun 12:46:54 PM 43.0569 -123.3975 194° South 462 532 35,000  Level Seattle Center
Sun 12:47:55 PM 42.9328 -123.4417 195° South 462 532 35,000  Level Seattle Center
Sun 12:48:56 PM 42.8072 -123.4867 195° South 464 534 35,000  Level Seattle Center
Sun 12:49:57 PM 42.6881 -123.5317 196° South 465 535 35,000  Level Seattle Center
Sun 12:50:58 PM 42.5372 -123.5858 195° South 468 539 35,000  Level Seattle Center
Sun 12:52:00 PM 42.4103 -123.6294 194° South 470 541 35,000  Level Seattle Center
Sun 12:53:01 PM 42.2847 -123.6747 195° South 470 541 35,000  Level Seattle Center
Sun 12:54:02 PM 42.1600 -123.7192 195° South 468 539 35,000  Level Seattle Center
Sun 12:55:03 PM 42.0314 -123.7622 194° South 472 543 35,000 -49 Level Seattle Center
Sun 12:56:05 PM 41.9031 -123.8067 194° South 474 545 34,900 -49 Descending Seattle Center
Sun 12:57:06 PM 41.7756 -123.8522 195° South 475 547 34,900  Level Seattle Center
Sun 12:58:07 PM 41.6481 -123.8972 195° South 473 544 34,900 49 Level Seattle Center
Sun 12:59:08 PM 41.5208 -123.9411 194° South 471 542 35,000 49 Climbing Seattle Center
Sun 01:00:09 PM 41.3669 -123.9944 195° South 474 545 35,000 -49 Level Seattle Center
Sun 01:01:11 PM 41.2408 -124.0417 196° South 471 542 34,900 -44 Descending Seattle Center
Sun 01:02:24 PM 41.0856 -124.0942 194° South 480 552 34,900  Level Seattle Center
Sun 01:03:25 PM 40.9569 -124.1375 194° South 480 552 34,900  Level Seattle Center
Sun 01:04:27 PM 40.8275 -124.1817 194° South 482 555 34,900 49 Level Seattle Center
Sun 01:05:28 PM 40.7006 -124.2242 194° South 475 547 35,000  Climbing Seattle Center
Sun 01:06:29 PM 40.5678 -124.2208 179° South 477 549 34,900  Descending Seattle Center
Sun 01:07:30 PM 40.4306 -124.2047 175° South 480 552 35,000 49 Climbing Seattle Center
Sun 01:08:32 PM 40.2986 -124.1869 174° South 479 551 35,000 -49 Level Seattle Center
Sun 01:09:33 PM 40.1536 -124.1678 174° South 484 557 34,900  Descending Seattle Center
Sun 01:10:34 PM 40.0214 -124.1506 174° South 480 552 35,000  Climbing Seattle Center
Sun 01:11:35 PM 39.8878 -124.1342 175° South 482 555 34,900 -49 Descending Seattle Center
Sun 01:12:37 PM 39.7547 -124.1167 174° South 481 554 34,900  Level Seattle Center
Sun 01:13:38 PM 39.6219 -124.1003 175° South 480 552 34,900  Level Seattle Center
Sun 01:14:39 PM 39.4647 -124.0811 175° South 475 547 34,900 49 Level Seattle Center
Sun 01:15:40 PM 39.3322 -124.0644 174° South 477 549 35,000 49 Climbing Seattle Center
Sun 01:16:42 PM 39.2000 -124.0481 175° South 478 550 35,000 -49 Level Seattle Center
Sun 01:17:43 PM 39.0678 -124.0317 175° South 478 550 34,900 -45 Descending Seattle Center
Sun 01:18:56 PM 38.9114 -124.0097 174° South 481 554 34,900  Level Oakland Center
Sun 01:19:58 PM 38.7800 -123.9925 174° South 480 552 34,900  Level Oakland Center
Sun 01:20:59 PM 38.6486 -123.9767 175° South 477 549 34,900 49 Level Oakland Center
Sun 01:22:01 PM 38.4914 -123.9558 174° South 476 548 35,000  Climbing Oakland Center
Sun 01:23:03 PM 38.3594 -123.9417 175° South 477 549 34,900  Descending Oakland Center
Sun 01:24:04 PM 38.2283 -123.9247 174° South 477 549 35,000  Climbing Oakland Center
Sun 01:25:06 PM 38.0981 -123.9078 174° South 473 544 34,900 -49 Descending Oakland Center
Sun 01:26:07 PM 37.9686 -123.8925 175° South 470 541 34,900  Level Oakland Center
Sun 01:27:09 PM 37.8367 -123.8772 175° South 477 549 34,900  Level Oakland Center
Sun 01:28:11 PM 37.7028 -123.8611 175° South 483 556 34,900  Level Oakland Center
Sun 01:29:12 PM 37.5456 -123.8431 175° South 477 549 34,900  Level Oakland Center
Sun 01:30:14 PM 37.4328 -123.9053 204° Southwest 467 537 34,900  Level Oakland Center
Sun 01:31:15 PM 37.4042 -124.0561 257° West 449 517 34,900  Level Oakland Center
Sun 01:32:17 PM 37.4222 -124.2169 278° West 461 531 34,900  Level Oakland Center
Sun 01:33:18 PM 37.4508 -124.3725 283° West 458 527 34,900  Level Oakland Center
Sun 01:35:21 PM 37.6889 -124.5258 333° Northwest 494 568 34,900  Level Oakland Center
Sun 01:36:23 PM 37.8197 -124.5842 341° North 496 571 34,900 48 Level Oakland Center
Sun 01:37:25 PM 37.9783 -124.6522 341° North 498 573 35,000  Climbing Oakland Center
Sun 01:38:26 PM 38.1097 -124.7108 341° North 500 575 34,900  Descending Oakland Center
Sun 01:39:28 PM 38.2394 -124.7692 341° North 497 572 35,000  Climbing Oakland Center
Sun 01:40:30 PM 38.3700 -124.8269 341° North 494 568 34,900 -49 Descending Oakland Center
Sun 01:41:31 PM 38.4994 -124.8858 340° North 495 570 34,900  Level Oakland Center
Sun 01:42:33 PM 38.6369 -124.9453 341° North 494 568 34,900 49 Level Oakland Center
Sun 01:43:34 PM 38.7658 -125.0033 341° North 493 567 35,000 49 Climbing Oakland Center
Sun 01:44:36 PM 38.8964 -125.0619 341° North 495 570 35,000  Level Oakland Center
Sun 01:45:38 PM 39.0253 -125.1192 341° North 491 565 35,000 -49 Level Oakland Center
Sun 01:46:39 PM 39.1744 -125.1842 341° North 493 567 34,900  Descending Oakland Center
Sun 01:47:41 PM 39.3036 -125.2417 341° North 492 566 35,000  Climbing Oakland Center
Sun 01:48:43 PM 39.4411 -125.3047 341° North 492 566 34,900 -49 Descending Oakland Center
Sun 01:49:44 PM 39.5706 -125.3617 341° North 491 565 34,900  Level Oakland Center
Sun 01:50:46 PM 39.7014 -125.4192 341° North 493 567 34,900  Level Oakland Center
Sun 01:51:48 PM 39.8303 -125.4767 341° North 491 565 34,900 61 Level Oakland Center
Sun 01:52:25 PM 39.9092 -125.5119 341° North 492 566 35,000 61 Climbing Oakland Center
Sun 01:53:27 PM 40.0389 -125.5694 341° North 492 566 35,000 -49 Level Oakland Center
Sun 01:54:28 PM 40.1686 -125.6267 341° North 492 566 34,900  Descending Oakland Center
Sun 01:55:30 PM 40.3250 -125.6972 341° North 494 568 35,000  Climbing Oakland Center
Sun 01:56:17 PM 40.4047 -125.7317 342° North 494 568 34,900 -56 Descending Seattle Center
Sun 01:57:18 PM 40.5350 -125.7889 342° North 494 568 34,900 49 Level Seattle Center
Sun 01:58:19 PM 40.6914 -125.8586 341° North 494 568 35,000 49 Climbing Seattle Center
Sun 01:59:20 PM 40.8222 -125.9167 341° North 493 567 35,000 -49 Level Seattle Center
Sun 02:00:21 PM 40.9522 -125.9744 341° North 495 570 34,900 -49 Descending Seattle Center
Sun 02:01:23 PM 41.0778 -126.0458 337° Northwest 491 565 34,900  Level Seattle Center
Sun 02:02:24 PM 41.1964 -126.1347 331° Northwest 489 563 34,900 49 Level Seattle Center
Sun 02:03:25 PM 41.3336 -126.1403 358° North 512 589 35,000  Climbing Seattle Center
Sun 02:04:26 PM 41.3925 -125.9853 63° Northeast 507 583 34,900 -49 Descending Seattle Center
Sun 02:05:27 PM 41.3025 -125.8625 134° Southeast 481 554 34,900 49 Level Seattle Center
Sun 02:06:28 PM 41.1772 -125.8006 160° South 477 549 35,000 49 Climbing Seattle Center
Sun 02:07:30 PM 41.0525 -125.7364 159° South 480 552 35,000 -49 Level Seattle Center
Sun 02:08:31 PM 40.9261 -125.6717 159° South 485 558 34,900  Descending Seattle Center
Sun 02:09:32 PM 40.7761 -125.5939 159° South 486 559 35,000 49 Climbing Seattle Center
Sun 02:10:33 PM 40.6508 -125.5300 159° South 485 558 35,000 -49 Level Seattle Center
Sun 02:11:34 PM 40.5269 -125.4653 158° South 483 556 34,900 -49 Descending Seattle Center
Sun 02:12:36 PM 40.4025 -125.4006 158° South 483 556 34,900  Level Seattle Center
Sun 02:13:37 PM 40.2775 -125.3361 159° South 484 557 34,900  Level Seattle Center
Sun 02:14:38 PM 40.1519 -125.2708 158° South 486 559 34,900 -148 Level Seattle Center
Sun 02:15:39 PM 40.0275 -125.2067 158° South 485 558 34,600 -1,024 Descending Seattle Center
Sun 02:16:41 PM 39.9039 -125.1419 158° South 484 557 32,800 -2,488 Descending Seattle Center
Sun 02:17:42 PM 39.7619 -125.0672 158° South 473 544 29,500 -3,492 Descending Seattle Center
Sun 02:18:43 PM 39.6500 -125.0086 158° South 459 528 25,700 -3,541 Descending Seattle Center
Sun 02:19:44 PM 39.5433 -124.9536 158° South 441 507 22,300 -3,317 Descending Seattle Center
Sun 02:20:46 PM 39.4422 -124.9000 158° South 422 486 18,900 -3,024 Descending Seattle Center
Sun 02:21:47 PM 39.3469 -124.8497 158° South 400 460 16,100 -2,951 Descending Seattle Center
Sun 02:22:48 PM 39.2556 -124.8028 158° South 379 436 12,900 -2,927 Descending Seattle Center
Sun 02:23:50 PM 39.1675 -124.7567 158° South 363 418 10,100 -2,878 Descending Seattle Center
Sun 02:24:51 PM 39.0831 -124.7125 158° South 349 402 7,000 -2,508 Descending Seattle Center
Sun 02:25:52 PM 38.9872 -124.6631 158° South 329 379 5,000 86 Descending Seattle Center
Sun 02:27:00 PM 39.2559 -124.5982 11° North  Level Estimated
Sun 02:34:00 PM 40.9147 -124.1864 11° North  Level Estimated
Sun 02:35:00 PM 41.1515 -124.1260 11° North  Level Estimated
Sun 02:36:00 PM 41.3884 -124.0650 11° North  Level Estimated
Sun 02:37:00 PM 41.6251 -124.0036 11° North  Level Estimated
Sun 02:38:00 PM 41.8619 -123.9418 11° North  Level Estimated
Sun 02:39:00 PM 42.0986 -123.8795 11° North  Level Estimated
Sun 02:40:00 PM 42.3353 -123.8167 11° North  Level Estimated
Sun 02:41:00 PM 42.5719 -123.7535 11° North  Level Estimated
Sun 02:42:00 PM 42.8085 -123.6898 11° North  Level Estimated
Sun 02:43:00 PM 43.0451 -123.6255 11° North  Level Estimated
Sun 02:44:00 PM 43.2817 -123.5608 11° North  Level Estimated
Sun 02:45:00 PM 43.5182 -123.4956 11° North  Level Estimated
Sun 02:46:00 PM 43.7546 -123.4299 11° North  Level Estimated
Sun 02:47:00 PM 43.9911 -123.3636 11° North  Level Estimated
Sun 02:48:00 PM 44.2274 -123.2969 11° North  Level Estimated
Sun 02:49:00 PM 44.4638 -123.2295 11° North  Level Estimated
Sun 02:50:00 PM 44.7001 -123.1617 12° North  Level Estimated
Sun 02:51:00 PM 44.9364 -123.0933 12° North  Level Estimated
Sun 02:52:00 PM 45.1726 -123.0243 12° North  Level Estimated
Sun 02:53:00 PM 45.4088 -122.9547 12° North  Level Estimated
Sun 02:54:00 PM 45.6449 -122.8846 12° North  Level Estimated
Sun 02:55:00 PM 45.8810 -122.8138 12° North  Level Estimated
Sun 02:56:00 PM 46.1171 -122.7425 12° North  Level Estimated
Sun 02:57:00 PM 46.3531 -122.6705 12° North  Level Estimated
Sun 02:58:00 PM 46.5891 -122.5980 12° North  Level Estimated
Sun 02:59:00 PM 46.8250 -122.5247 12° North  Level Estimated
Sun 03:00:00 PM 47.0609 -122.4509 12° North  Level Estimated
Sun 03:01:00 PM 47.2967 -122.3764 12° North  Level Estimated
Sun 03:02:00 PM 47.5300 -122.3020 12° North  Level Estimated
Sun 03:03:00 PM 47.5300 -122.3020 270° West  Level Estimated
Sun 03:04:00 PM 47.5300 -122.3020 270° West  Level Estimated
Sun 03:05:00 PM 47.5300 -122.3020 270° West  Level Estimated
Sun 03:06:00 PM 47.5300 -122.3020 270° West  Level Estimated
Sun 03:07:00 PM 47.5300 -122.3020 270° West  Level Estimated
Sun 03:08:00 PM 47.5300 -122.3020 270° West  Level Estimated
Sun 03:09:00 PM 47.5300 -122.3020 270° West  Level Estimated
Sun 03:10:00 PM 47.5300 -122.3020 270° West  Level Estimated
Sun 03:11:00 PM 47.5300 -122.3020 270° West  Level Estimated
Sun 03:12:00 PM 47.5300 -122.3020 270° West  Level Estimated
Sun 03:13:00 PM 47.5300 -122.3020 270° West  Level Estimated
Sun 03:14:00 PM 47.5300 -122.3020 270° West  Level Estimated
Sun 03:15:00 PM 47.5300 -122.3020 270° West  Level Estimated
Sun 03:16:00 PM 47.5300 -122.3020 270° West  Level Estimated
Sun 03:17:00 PM 47.5300 -122.3020 270° West  Level Estimated
Sun 03:18:00 PM 47.5300 -122.3020 270° West  Level Estimated
Sun 03:19:00 PM 47.5300 -122.3020 270° West  Level Estimated
Sun 03:20:00 PM 47.5300 -122.3020 270° West  Level Estimated
Sun 03:21:00 PM 47.5300 -122.3020 270° West  Level Estimated
Sun 03:22:00 PM 47.5300 -122.3020 270° West  Level Estimated
Sun 03:23:00 PM 47.5300 -122.3020 270° West  Level Estimated
Sun 03:24:00 PM 47.5300 -122.3020 270° West  Level Estimated
Sun 03:25:00 PM 47.5300 -122.3020 270° West  Level Estimated
Sun 03:26:00 PM 47.5300 -122.3020 270° West  Level Estimated
Sun 03:27:00 PM 47.5300 -122.3020 270° West  Level Estimated
Sun 03:28:00 PM 47.5300 -122.3020 270° West  Level Estimated
Sun 03:29:00 PM 47.5300 -122.3020 270° West  Level Estimated
Sun 03:30:00 PM 47.5300 -122.3020 270° West  Level Estimated
Sun 03:31:00 PM 47.5300 -122.3020 270° West  Level Estimated
Sun 03:32:00 PM 47.5300 -122.3020 270° West  Level Estimated
Sun 03:33:00 PM 47.5300 -122.3020 270° West  Level Estimated
Sun 03:34:00 PM 47.5300 -122.3020 270° West  Level Estimated
Sun 03:35:00 PM 47.5300 -122.3020 270° West  Level Estimated
Sun 03:36:00 PM 47.5300 -122.3020 270° West  Level Estimated
Sun 03:37:00 PM 47.5300 -122.3020 270° West  Level Estimated
Sun 03:38:00 PM 47.5300 -122.3020 270° West  Level Estimated
Sun 03:39:00 PM 47.5300 -122.3020 270° West  Level Estimated
Sun 03:40:00 PM 47.5300 -122.3020 270° West  Level Estimated
Sun 03:41:00 PM 47.5300 -122.3020 270° West  Level Estimated
Sun 03:42:00 PM 47.5300 -122.3020 270° West  Level Estimated
Sun 03:43:00 PM 47.5300 -122.3020 270° West  Level Estimated
Sun 03:44:00 PM 47.5300 -122.3020 270° West  Level Estimated
Sun 03:45:00 PM 47.5300 -122.3020 270° West  Level Estimated
Sun 03:46:00 PM 47.5300 -122.3020 270° West  Level Estimated
Sun 03:47:00 PM 47.5300 -122.3020 270° West  Level Estimated
Sun 03:48:00 PM 47.5300 -122.3020 270° West  Level Estimated
Sun 03:49:00 PM 47.5300 -122.3020 270° West  Level Estimated
Sun 03:50:00 PM 47.5300 -122.3020 270° West  Level Estimated
Sun 03:51:00 PM 47.5300 -122.3020 270° West  Level Estimated
Sun 03:52:00 PM 47.5300 -122.3020 270° West  Level Estimated
Sun 03:53:00 PM 47.5300 -122.3020 270° West  Level Estimated
Sun 03:54:00 PM 47.5300 -122.3020 270° West  Level Estimated
Sun 03:55:00 PM 47.5300 -122.3020 270° West  Level Estimated
Sun 03:56:00 PM 47.5300 -122.3020 270° West  Level Estimated
Sun 03:57:00 PM 47.5300 -122.3020 270° West  Level Estimated
Sun 03:58:00 PM 47.5300 -122.3020 270° West  Level Estimated
Sun 03:59:00 PM 47.5300 -122.3020 270° West  Level Estimated
Sun 03:59:31 PM 40.5139 -125.7042 270° West 309 356 15,100  Level Seattle Center
Sun 04:00:00 PM 47.5300 -122.3020 270° West  Level Estimated
Sun 04:00:33 PM 40.6211 -125.7031 360° North 339 390 15,100  Level Seattle Center
Sun 04:01:00 PM 47.5300 -122.3020 270° West  Level Estimated
Sun 04:01:34 PM 40.7322 -125.7011 North 366 421 15,100  Level Seattle Center
Sun 04:02:00 PM 47.5300 -122.3020 270° West  Level Estimated
Sun 04:02:36 PM 40.8417 -125.6989 North 381 438 15,000  Level Seattle Center
Sun 04:03:00 PM 47.5300 -122.3020 270° West  Level Estimated
Sun 04:03:37 PM 40.9503 -125.6975 North 386 444 15,100  Level Seattle Center
Sun 04:04:00 PM 47.5300 -122.3020 270° West  Level Estimated
Sun 04:04:38 PM 41.0575 -125.6939 North 387 445 15,100  Level Seattle Center
Sun 04:05:40 PM 41.1647 -125.6914 North 386 444 15,000 -49 Descending Seattle Center
Sun 04:06:41 PM 41.2711 -125.6900 North 385 443 15,000 49 Level Seattle Center
Sun 04:07:43 PM 41.3794 -125.6864 North 386 444 15,100  Climbing Seattle Center
Sun 04:08:44 PM 41.5081 -125.6847 North 386 444 15,000  Descending Seattle Center
Sun 04:09:45 PM 41.6161 -125.6825 North 386 444 15,100 49 Climbing Seattle Center
Sun 04:10:47 PM 41.7233 -125.6800 North 386 444 15,100 -49 Level Seattle Center
Sun 04:11:48 PM 41.8317 -125.6747 North 387 445 15,000  Descending Seattle Center
Sun 04:12:49 PM 41.9394 -125.6719 North 388 447 15,100  Climbing Seattle Center
Sun 04:13:51 PM 42.0467 -125.6586 North 387 445 15,000  Descending Seattle Center
Sun 04:14:52 PM 42.1536 -125.6497 North 387 445 15,100  Climbing Seattle Center
Sun 04:15:54 PM 42.2614 -125.6397 North 387 445 15,000  Descending Seattle Center
Sun 04:16:55 PM 42.3753 -125.6281 North 389 448 15,100  Climbing Seattle Center
Sun 04:17:56 PM 42.4775 -125.6200 North 388 447 15,000  Descending Seattle Center
Sun 04:18:58 PM 42.6064 -125.6086 North 386 444 15,100 98 Climbing Seattle Center
Sun 04:19:59 PM 42.7144 -125.5950 North 388 447 15,200 49 Climbing Seattle Center
Sun 04:21:00 PM 42.8211 -125.5806 North 387 445 15,200  Level Seattle Center
Sun 04:22:02 PM 42.9325 -125.5525 10° North 387 445 15,200  Level Seattle Center
Sun 04:23:03 PM 43.0394 -125.5297 North 387 445 15,200  Level Seattle Center
Sun 04:24:04 PM 43.1467 -125.5072 North 389 448 15,200  Level Seattle Center
Sun 04:25:06 PM 43.2544 -125.4853 North 391 450 15,200  Level Seattle Center
Sun 04:26:07 PM 43.3617 -125.4614 North 391 450 15,200  Level Seattle Center
Sun 04:27:08 PM 43.4669 -125.4383 North 387 445 15,200  Level Seattle Center
Sun 04:28:11 PM 43.5739 -125.4139 North 388 447 15,200 -49 Level Seattle Center
Sun 04:29:11 PM 43.6761 -125.3606 21° North 393 452 15,100  Descending Seattle Center
Sun 04:30:12 PM 43.7767 -125.3011 23° Northeast 394 453 15,200 49 Climbing Seattle Center
Sun 04:31:14 PM 43.8969 -125.2328 22° Northeast 390 449 15,200 -49 Level Seattle Center
Sun 04:32:15 PM 43.9983 -125.1764 22° Northeast 393 452 15,100  Descending Seattle Center
Sun 04:33:16 PM 44.0989 -125.1172 23° Northeast 393 452 15,200 49 Climbing Seattle Center
Sun 04:34:18 PM 44.1981 -125.0614 22° Northeast 387 445 15,200  Level Seattle Center
Sun 04:35:19 PM 44.3033 -125.0853 351° North 397 457 15,200  Level Seattle Center
Sun 04:36:20 PM 44.3947 -125.1569 331° Northwest 388 447 15,200  Level Seattle Center
Sun 04:37:22 PM 44.4878 -125.2281 331° Northwest 382 440 15,200  Level Seattle Center
Sun 04:38:23 PM 44.5797 -125.2958 332° Northwest 378 435 15,200  Level Seattle Center
Sun 04:39:24 PM 44.6714 -125.3669 331° Northwest 377 434 15,200  Level Seattle Center
Sun 04:40:26 PM 44.7672 -125.4250 337° Northwest 379 436 15,200 -49 Level Seattle Center
Sun 04:41:27 PM 44.8631 -125.3231 37° Northeast 389 448 15,100  Descending Seattle Center
Sun 04:42:28 PM 44.8364 -125.1881 106° East 392 451 15,200 49 Climbing Seattle Center
Sun 04:43:29 PM 44.7358 -125.1606 169° South 385 443 15,200  Level Seattle Center
Sun 04:44:31 PM 44.6400 -125.2072 199° South 372 428 15,200 -49 Level Seattle Center
Sun 04:45:32 PM 44.5403 -125.2472 196° South 371 427 15,100 -49 Descending Seattle Center
Sun 04:46:33 PM 44.4414 -125.2886 197° South 371 427 15,100 49 Level Seattle Center
Sun 04:47:34 PM 44.3428 -125.3300 197° South 372 428 15,200 49 Climbing Seattle Center
Sun 04:48:35 PM 44.2431 -125.3708 196° South 372 428 15,200  Level Seattle Center
Sun 04:49:37 PM 44.1431 -125.4119 196° South 374 430 15,200  Level Seattle Center
Sun 04:50:38 PM 44.0236 -125.4617 197° South 374 430 15,200 -49 Level Seattle Center
Sun 04:51:39 PM 43.9242 -125.5025 196° South 373 429 15,100  Descending Seattle Center
Sun 04:52:40 PM 43.8250 -125.5428 196° South 373 429 15,200 49 Climbing Seattle Center
Sun 04:53:42 PM 43.7256 -125.5850 197° South 374 430 15,200  Level Seattle Center
Sun 04:54:43 PM 43.6256 -125.6225 195° South 374 430 15,200  Level Seattle Center
Sun 04:55:44 PM 43.5278 -125.6617 196° South 370 426 15,200 -49 Level Seattle Center
Sun 04:56:45 PM 43.4292 -125.7039 197° South 370 426 15,100 -49 Descending Seattle Center
Sun 04:57:46 PM 43.3294 -125.7467 197° South 373 429 15,100 49 Level Seattle Center
Sun 04:58:48 PM 43.2297 -125.7864 196° South 373 429 15,200 49 Climbing Seattle Center
Sun 04:59:49 PM 43.1292 -125.8258 196° South 374 430 15,200  Level Seattle Center
Sun 05:00:50 PM 43.0097 -125.8717 196° South 373 429 15,200 -49 Level Seattle Center
Sun 05:01:51 PM 42.9100 -125.9103 196° South 372 428 15,100  Descending Seattle Center
Sun 05:02:52 PM 42.8167 -125.9475 196° South 372 428 15,200 49 Climbing Seattle Center
Sun 05:03:53 PM 42.7164 -125.9875 196° South 374 430 15,200  Level Seattle Center
Sun 05:04:54 PM 42.6167 -126.0258 196° South 374 430 15,200 -98 Level Seattle Center
Sun 05:05:55 PM 42.5169 -126.0656 196° South 373 429 15,000 -98 Descending Seattle Center
Sun 05:06:57 PM 42.3975 -126.1111 196° South 373 429 15,000 49 Level Seattle Center
Sun 05:07:58 PM 42.2983 -126.1500 196° South 373 429 15,100 49 Climbing Seattle Center
Sun 05:08:59 PM 42.1997 -126.1881 196° South 371 427 15,100  Level Seattle Center
Sun 05:10:00 PM 42.1014 -126.2253 196° South 369 425 15,100 -49 Level Seattle Center
Sun 05:11:01 PM 42.0028 -126.2619 195° South 368 423 15,000  Descending Seattle Center
Sun 05:12:02 PM 41.9022 -126.3014 196° South 373 429 15,100 49 Climbing Seattle Center
Sun 05:13:03 PM 41.8028 -126.3392 196° South 374 430 15,100  Level Seattle Center
Sun 05:14:04 PM 41.7042 -126.3767 196° South 371 427 15,100 -49 Level Seattle Center
Sun 05:15:05 PM 41.6039 -126.4042 192° South 372 428 15,000  Descending Seattle Center
Sun 05:16:06 PM 41.5256 -126.3161 140° Southeast 378 435 15,100 49 Climbing Seattle Center
Sun 05:17:07 PM 41.5436 -126.1758 80° East 385 443 15,100  Level Seattle Center
Sun 05:18:08 PM 41.6597 -126.0953 27° Northeast 387 445 15,100  Level Seattle Center
Sun 05:19:09 PM 41.7608 -126.0428 21° North 389 448 15,100  Level Seattle Center
Sun 05:20:10 PM 41.8608 -125.9894 22° Northeast 388 447 15,100  Level Seattle Center
Sun 05:21:12 PM 41.9636 -125.9328 22° Northeast 392 451 15,100  Level Seattle Center
Sun 05:22:13 PM 42.0650 -125.8781 22° Northeast 393 452 15,100  Level Seattle Center
Sun 05:23:14 PM 42.1656 -125.8244 22° Northeast 391 450 15,100  Level Seattle Center
Sun 05:24:15 PM 42.2669 -125.7681 22° Northeast 393 452 15,100  Level Seattle Center
Sun 05:25:16 PM 42.3686 -125.7125 22° Northeast 393 452 15,100  Level Seattle Center
Sun 05:26:17 PM 42.4767 -125.6558 21° North 394 453 15,100 -49 Level Seattle Center
Sun 05:27:18 PM 42.5700 -125.6042 22° Northeast 386 444 15,000  Descending Seattle Center
Sun 05:28:19 PM 42.6744 -125.5414 24° Northeast 388 447 15,100 49 Climbing Seattle Center
Sun 05:29:20 PM 42.7717 -125.4931 20° North 390 449 15,100  Level Seattle Center
Sun 05:30:21 PM 42.8725 -125.4344 23° Northeast 393 452 15,100 49 Level Seattle Center
Sun 05:31:22 PM 42.9775 -125.3756 22° Northeast 391 450 15,200  Climbing Seattle Center
Sun 05:32:23 PM 43.0794 -125.3200 22° Northeast 393 452 15,100  Descending Seattle Center
Sun 05:33:24 PM 43.1817 -125.2658 21° North 395 455 15,200 49 Climbing Seattle Center
Sun 05:34:26 PM 43.3036 -125.1986 22° Northeast 395 455 15,200  Level Seattle Center
Sun 05:35:27 PM 43.4067 -125.1400 22° Northeast 402 463 15,200  Level Seattle Center
Sun 05:36:28 PM 43.5075 -125.0844 22° Northeast 391 450 15,200  Level Seattle Center
Sun 05:37:29 PM 43.6108 -125.0281 22° Northeast 397 457 15,200  Level Seattle Center
Sun 05:38:30 PM 43.7131 -124.9706 22° Northeast 400 460 15,200  Level Seattle Center
Sun 05:39:31 PM 43.8108 -124.9050 26° Northeast 395 455 15,200  Level Seattle Center
Sun 05:40:32 PM 43.9128 -124.8475 22° Northeast 398 458 15,200  Level Seattle Center
Sun 05:41:33 PM 44.0194 -124.7872 22° Northeast 409 471 15,200 689 Level Seattle Center
Sun 05:42:34 PM 44.1303 -124.7253 22° Northeast 426 490 16,600 2,066 Climbing Seattle Center
Sun 05:43:35 PM 44.2436 -124.6558 24° Northeast 444 511 19,400 1,623 Climbing Seattle Center
Sun 05:44:36 PM 44.3622 -124.5842 23° Northeast 460 529 19,900 295 Climbing Seattle Center
Sun 05:45:37 PM 44.5044 -124.4989 23° Northeast 465 535 20,000  Climbing Seattle Center
Sun 05:46:38 PM 44.6197 -124.4269 24° Northeast 457 526 19,900 -49 Descending Seattle Center
Sun 05:47:39 PM 44.7358 -124.3539 24° Northeast 456 525 19,900 49 Level Seattle Center
Sun 05:48:41 PM 44.8522 -124.2825 23° Northeast 454 522 20,000 49 Climbing Seattle Center
Sun 05:49:42 PM 44.9694 -124.2092 24° Northeast 457 526 20,000  Level Seattle Center
Sun 05:50:43 PM 45.0861 -124.1344 24° Northeast 457 526 20,000 -49 Level Seattle Center
Sun 05:51:44 PM 45.2031 -124.0617 24° Northeast 457 526 19,900  Descending Seattle Center
Sun 05:52:45 PM 45.3200 -123.9872 24° Northeast 457 526 20,000 49 Climbing Seattle Center
Sun 05:53:46 PM 45.4361 -123.9136 24° Northeast 455 524 20,000  Level Seattle Center
Sun 05:54:47 PM 45.5528 -123.8369 25° Northeast 460 529 20,000 -49 Level Seattle Center
Sun 05:55:48 PM 45.6683 -123.7658 23° Northeast 455 524 19,900 -49 Descending Seattle Center
Sun 05:56:49 PM 45.7828 -123.6936 24° Northeast 450 518 19,900  Level Seattle Center
Sun 05:57:50 PM 45.8992 -123.6164 25° Northeast 459 528 19,900 49 Level Seattle Center
Sun 05:58:52 PM 46.0153 -123.5419 24° Northeast 457 526 20,000 48 Climbing Seattle Center
Sun 05:59:55 PM 46.1544 -123.4500 25° Northeast 458 527 20,000  Level Seattle Center
Sun 06:00:56 PM 46.2708 -123.3756 24° Northeast 459 528 20,000  Level Seattle Center
Sun 06:01:57 PM 46.3875 -123.2964 25° Northeast 463 533 20,000  Level Seattle Center
Sun 06:02:58 PM 46.4933 -123.2275 24° Northeast 458 527 20,000  Level Seattle Center
Sun 06:03:59 PM 46.6092 -123.1514 24° Northeast 460 529 20,000 -393 Level Seattle Center
Sun 06:05:00 PM 46.7447 -123.0594 25° Northeast 454 522 19,200 -1,419 Descending Seattle Center
Sun 06:05:32 PM 46.8008 -123.0172 27° Northeast 451 519 17,800 -1,152 Descending Seattle Center
Sun 06:06:39 PM 46.9186 -122.9386 25° Northeast 387 445 17,300 -703 Descending Seattle Center
Sun 06:07:40 PM 47.0033 -122.8611 32° Northeast 348 400 16,300 -1,465 Descending Seattle Center
Sun 06:08:46 PM 47.0894 -122.7531 40° Northeast 351 404 14,200 -1,559 Descending Seattle Center
Sun 06:09:47 PM 47.1619 -122.6619 40° Northeast 347 399 13,000 -1,034 Descending Seattle Center
Sun 06:10:42 PM 47.2222 -122.5839 41° Northeast 313 360 12,200 -1,131 Descending Seattle Center
Sun 06:11:49 PM 47.2886 -122.4953 42° Northeast 298 343 10,700 -1,734 Descending Seattle Center
Sun 06:12:50 PM 47.3703 -122.4933 North 301 346 8,500 -1,475 Descending Seattle Center
Sun 06:13:51 PM 47.4461 -122.5206 346° North 264 304 7,700 -1,041 Descending Seattle Center
Sun 06:14:51 PM 47.5119 -122.5436 347° North 230 265 6,400 -843 Descending Seattle Center
Sun 06:15:52 PM 47.5822 -122.5675 347° North 238 274 6,000 -197 Descending Seattle Center
Sun 06:16:53 PM 47.6472 -122.5875 348° North 238 274 6,000 -246 Level Seattle Center
Sun 06:17:54 PM 47.7111 -122.6119 346° North 235 270 5,500 -879 Descending Seattle Center
Sun 06:18:49 PM 47.7569 -122.5736 29° Northeast 230 265 4,300 -1,138 Descending Seattle Center
Sun 06:19:50 PM 47.7322 -122.5014 117° Southeast 199 229 3,300 -836 Descending Seattle Center
Sun 06:20:51 PM 47.6844 -122.4619 151° Southeast 189 217 2,600 -694 Descending Seattle Center
Sun 06:21:51 PM 47.6442 -122.4250 148° Southeast 165 190 1,900 -446 Descending Seattle Center
Sun 06:22:52 PM 47.6156 -122.3817 134° Southeast 143 165 1,700 -443 Descending Seattle Center
Sun 06:23:53 PM 47.5825 -122.3472 145° Southeast 132 152 1,000 -724 Descending Seattle Center
Sun 06:24:48 PM 47.5508 -122.3189 149° Southeast 168 193 300 -545 Descending Seattle Center
Sun 06:25:21 PM 47.5361 -122.3069 151° Southeast 137 158 200 -182 Descending Seattle Center

Login

Don't have an account? Register now (free) for customized features, flight alerts, and more!